Time;durP1;ratioP1;P1;durP2;ratioP2;P2;SDS_P1;SDS_P2;PMS_P1;PMS_P2;Temp;Humidity;BMP_temperature;BMP_pressure;BME280_temperature;BME280_humidity;BME280_pressure;Samples;Min_cycle;Max_cycle;Signal;HPM_P1;HPM_P2
2021/07/31 00:00:18;;;;;;;7.32;1.58;;;;;;;;;;5105403;28;20032;-68
2021/07/31 00:02:44;;;;;;;7.28;1.85;;;;;;;;;;5098470;28;20081;-68
2021/07/31 00:05:11;;;;;;;7.18;1.90;;;;;;;;;;5109764;28;20093;-68
2021/07/31 00:07:37;;;;;;;5.03;1.95;;;;;;;;;;5104967;28;20036;-68
2021/07/31 00:10:04;;;;;;;5.50;1.67;;;;;;;;;;5112774;28;20035;-68
2021/07/31 00:12:30;;;;;;;5.80;1.85;;;;;;;;;;5102757;28;20498;-68
2021/07/31 00:14:56;;;;;;;9.68;2.35;;;;;;;;;;5112549;28;20032;-68
2021/07/31 00:17:22;;;;;;;5.32;1.75;;;;;;;;;;5097556;28;20123;-68
2021/07/31 00:19:48;;;;;;;6.63;1.95;;;;;;;;;;5105780;28;20074;-68
2021/07/31 00:22:14;;;;;;;8.25;1.85;;;;;;;;;;5100871;28;20040;-68
2021/07/31 00:24:41;;;;;;;6.97;2.15;;;;;;;;;;5117750;27;20161;-68
2021/07/31 00:27:07;;;;;;;7.68;2.42;;;;;;;;;;5105445;27;21047;-68
2021/07/31 00:29:33;;;;;;;6.78;1.95;;;;;;;;;;5106215;27;20038;-68
2021/07/31 00:31:59;;;;;;;4.88;1.48;;;;;;;;;;5109175;27;20377;-68
2021/07/31 00:34:26;;;;;;;5.28;2.03;;;;;;;;;;5118195;27;20036;-68
2021/07/31 00:36:52;;;;;;;7.72;2.08;;;;;;;;;;5112875;27;20050;-68
2021/07/31 00:39:18;;;;;;;6.80;2.17;;;;;;;;;;5109870;27;20047;-68
2021/07/31 00:41:44;;;;;;;6.97;2.42;;;;;;;;;;5113974;27;20248;-68
2021/07/31 00:44:10;;;;;;;9.23;2.03;;;;;;;;;;5109621;27;20058;-68
2021/07/31 00:46:36;;;;;;;6.45;2.40;;;;;;;;;;5114240;27;20380;-68
2021/07/31 00:49:02;;;;;;;7.50;2.25;;;;;;;;;;5112049;27;20047;-68
2021/07/31 00:51:29;;;;;;;10.73;2.88;;;;;;;;;;5112784;27;20038;-68
2021/07/31 00:53:55;;;;;;;10.88;2.92;;;;;;;;;;5097563;27;20032;-68
2021/07/31 00:56:21;;;;;;;9.85;3.08;;;;;;;;;;5115618;27;20039;-68
2021/07/31 00:58:48;;;;;;;9.13;3.10;;;;;;;;;;5112653;27;20147;-68
2021/07/31 01:01:14;;;;;;;9.60;2.88;;;;;;;;;;5112712;27;20409;-68
2021/07/31 01:03:40;;;;;;;9.82;2.95;;;;;;;;;;5101249;27;20035;-69
2021/07/31 01:06:06;;;;;;;10.68;3.55;;;;;;;;;;5114126;27;20441;-68
2021/07/31 01:08:33;;;;;;;6.25;2.70;;;;;;;;;;5111588;27;20214;-68
2021/07/31 01:11:00;;;;;;;11.85;3.45;;;;;;;;;;5117221;27;20054;-68
2021/07/31 01:13:27;;;;;;;9.73;3.50;;;;;;;;;;5107250;27;20040;-69
2021/07/31 01:15:58;;;;;;;14.30;4.22;;;;;;;;;;5110175;27;20078;-69
2021/07/31 01:18:24;;;;;;;9.32;3.90;;;;;;;;;;5113401;27;20043;-68
2021/07/31 01:20:50;;;;;;;9.95;3.90;;;;;;;;;;5108067;27;20043;-68
2021/07/31 01:23:16;;;;;;;11.00;3.90;;;;;;;;;;5113108;27;20027;-68
2021/07/31 01:25:43;;;;;;;9.05;3.17;;;;;;;;;;5080103;28;20056;-68
2021/07/31 01:28:11;;;;;;;12.07;3.72;;;;;;;;;;5108026;27;20387;-68
2021/07/31 01:30:38;;;;;;;10.90;3.67;;;;;;;;;;5108020;27;20046;-69
2021/07/31 01:33:05;;;;;;;8.65;3.75;;;;;;;;;;5111649;27;20131;-69
2021/07/31 01:35:31;;;;;;;12.27;4.63;;;;;;;;;;5106286;27;20047;-68
2021/07/31 01:37:57;;;;;;;11.65;4.28;;;;;;;;;;5109194;27;20093;-68
2021/07/31 01:40:23;;;;;;;12.65;4.38;;;;;;;;;;5109243;27;20036;-68
2021/07/31 01:42:50;;;;;;;9.88;4.20;;;;;;;;;;5110912;27;20039;-68
2021/07/31 01:45:16;;;;;;;7.32;4.03;;;;;;;;;;5109296;27;20035;-68
2021/07/31 01:47:44;;;;;;;11.45;4.57;;;;;;;;;;5111340;27;20039;-68
2021/07/31 01:50:10;;;;;;;9.45;3.90;;;;;;;;;;5079788;28;20525;-68
2021/07/31 01:52:36;;;;;;;9.57;4.53;;;;;;;;;;5110381;27;20066;-68
2021/07/31 01:55:02;;;;;;;10.23;4.50;;;;;;;;;;5112930;27;20070;-69
2021/07/31 01:57:29;;;;;;;11.00;4.32;;;;;;;;;;5106492;27;20039;-69
2021/07/31 01:59:55;;;;;;;12.63;4.88;;;;;;;;;;5110929;27;20043;-69
2021/07/31 02:02:21;;;;;;;14.13;5.82;;;;;;;;;;5103104;27;20050;-69
2021/07/31 02:04:47;;;;;;;13.68;5.57;;;;;;;;;;5107450;27;20134;-69
2021/07/31 02:07:13;;;;;;;12.65;5.43;;;;;;;;;;5102729;27;20032;-70
2021/07/31 02:09:39;;;;;;;16.27;5.93;;;;;;;;;;5109914;27;20392;-69
2021/07/31 02:12:06;;;;;;;10.93;5.70;;;;;;;;;;5101434;27;20036;-69
2021/07/31 02:14:32;;;;;;;14.27;6.13;;;;;;;;;;5109175;27;20081;-69
2021/07/31 02:16:58;;;;;;;15.93;5.78;;;;;;;;;;5103587;27;20114;-69
2021/07/31 02:19:24;;;;;;;16.58;6.30;;;;;;;;;;5111008;27;20039;-69
2021/07/31 02:21:50;;;;;;;14.80;6.78;;;;;;;;;;5099304;27;20042;-69
2021/07/31 02:24:16;;;;;;;18.45;6.97;;;;;;;;;;5085637;28;20051;-69
2021/07/31 02:26:45;;;;;;;11.80;5.75;;;;;;;;;;5096920;27;20063;-69
2021/07/31 02:29:20;;;;;;;19.92;7.45;;;;;;;;;;5106180;27;20472;-69
2021/07/31 02:31:54;;;;;;;11.75;6.18;;;;;;;;;;5103151;27;20088;-69
2021/07/31 02:34:33;;;;;;;13.98;7.13;;;;;;;;;;5113420;27;20079;-69
2021/07/31 02:37:11;;;;;;;11.90;6.40;;;;;;;;;;5105471;27;20036;-69
2021/07/31 02:39:48;;;;;;;14.93;7.47;;;;;;;;;;5105312;27;20039;-69
2021/07/31 02:42:26;;;;;;;11.73;6.95;;;;;;;;;;5108040;27;20023;-70
2021/07/31 02:45:04;;;;;;;16.08;8.10;;;;;;;;;;5095120;28;20032;-70
2021/07/31 02:47:39;;;;;;;16.80;7.20;;;;;;;;;;5108696;27;20286;-70
2021/07/31 02:50:15;;;;;;;14.95;7.80;;;;;;;;;;5109780;27;20147;-70
2021/07/31 02:52:56;;;;;;;16.80;8.38;;;;;;;;;;5097874;27;20084;-70
2021/07/31 02:55:37;;;;;;;17.20;7.95;;;;;;;;;;5117635;27;20111;-70
2021/07/31 02:58:15;;;;;;;16.95;7.85;;;;;;;;;;5107862;27;20035;-70
2021/07/31 03:00:47;;;;;;;15.88;8.40;;;;;;;;;;5108193;27;20078;-70
2021/07/31 03:03:14;;;;;;;17.13;8.32;;;;;;;;;;5097814;27;20031;-70
2021/07/31 03:05:40;;;;;;;18.20;9.13;;;;;;;;;;5117137;27;20395;-70
2021/07/31 03:08:07;;;;;;;20.33;8.60;;;;;;;;;;5079766;27;20138;-70
2021/07/31 03:10:33;;;;;;;18.73;8.30;;;;;;;;;;5112119;27;20372;-70
2021/07/31 03:12:59;;;;;;;16.08;8.73;;;;;;;;;;5083471;28;20048;-70
2021/07/31 03:15:25;;;;;;;19.60;8.77;;;;;;;;;;5075776;27;20044;-70
2021/07/31 03:17:51;;;;;;;13.80;8.73;;;;;;;;;;5103765;27;20027;-70
2021/07/31 03:20:17;;;;;;;17.38;8.35;;;;;;;;;;5104358;27;20046;-71
2021/07/31 03:22:43;;;;;;;14.48;7.63;;;;;;;;;;5118605;27;20260;-71
2021/07/31 03:25:10;;;;;;;15.93;9.20;;;;;;;;;;5111088;27;20039;-71
2021/07/31 03:27:36;;;;;;;18.50;7.90;;;;;;;;;;5107524;27;20040;-71
2021/07/31 03:30:03;;;;;;;17.80;9.18;;;;;;;;;;5105306;27;20503;-70
2021/07/31 03:32:29;;;;;;;12.85;7.80;;;;;;;;;;5108562;27;20027;-71
2021/07/31 03:34:55;;;;;;;12.93;7.57;;;;;;;;;;5106748;27;20043;-71
2021/07/31 03:37:21;;;;;;;12.23;7.93;;;;;;;;;;5106504;27;20031;-70
2021/07/31 03:39:47;;;;;;;13.00;7.90;;;;;;;;;;5108871;27;20494;-70
2021/07/31 03:42:14;;;;;;;18.35;8.02;;;;;;;;;;5097790;28;20387;-70
2021/07/31 03:44:40;;;;;;;16.25;8.65;;;;;;;;;;5101278;27;20042;-70
2021/07/31 03:47:07;;;;;;;13.95;7.82;;;;;;;;;;5108223;28;20040;-70
2021/07/31 03:49:33;;;;;;;15.52;7.82;;;;;;;;;;5107215;28;20192;-70
2021/07/31 03:51:59;;;;;;;12.77;8.30;;;;;;;;;;5117404;27;20054;-70
2021/07/31 03:54:27;;;;;;;14.10;7.40;;;;;;;;;;5106929;27;20043;-70
2021/07/31 03:57:13;;;;;;;13.95;7.45;;;;;;;;;;5091183;28;20045;-71
2021/07/31 03:59:40;;;;;;;18.73;9.35;;;;;;;;;;5109004;28;20036;-70
2021/07/31 04:02:07;;;;;;;12.80;8.27;;;;;;;;;;5111451;28;20091;-71
2021/07/31 04:04:34;;;;;;;16.17;7.93;;;;;;;;;;5110123;28;20055;-71
2021/07/31 04:07:00;;;;;;;15.98;8.27;;;;;;;;;;5105912;28;20479;-71
2021/07/31 04:09:27;;;;;;;13.15;9.35;;;;;;;;;;5095975;28;20052;-71
2021/07/31 04:11:53;;;;;;;17.50;9.32;;;;;;;;;;5103810;28;20348;-71
2021/07/31 04:14:19;;;;;;;14.98;8.85;;;;;;;;;;5109413;28;20410;-70
2021/07/31 04:16:46;;;;;;;16.13;9.23;;;;;;;;;;5106726;28;20035;-70
2021/07/31 04:19:12;;;;;;;17.45;8.80;;;;;;;;;;5112989;28;20501;-70
2021/07/31 04:21:38;;;;;;;16.33;8.73;;;;;;;;;;5088768;28;20052;-70
2021/07/31 04:24:05;;;;;;;17.00;7.88;;;;;;;;;;5109296;28;20032;-70
2021/07/31 04:26:31;;;;;;;16.35;8.50;;;;;;;;;;5106053;28;20077;-69
2021/07/31 04:28:57;;;;;;;18.38;8.65;;;;;;;;;;5117661;28;20043;-69
2021/07/31 04:31:25;;;;;;;16.65;8.02;;;;;;;;;;5098747;28;20043;-70
2021/07/31 04:33:55;;;;;;;15.48;7.78;;;;;;;;;;5108246;28;20236;-69
2021/07/31 04:36:21;;;;;;;16.42;7.55;;;;;;;;;;5104093;28;20032;-69
2021/07/31 04:38:47;;;;;;;16.25;7.60;;;;;;;;;;5115451;28;20054;-69
2021/07/31 04:41:13;;;;;;;13.32;6.60;;;;;;;;;;5109693;28;20073;-69
2021/07/31 04:43:39;;;;;;;12.57;6.32;;;;;;;;;;5103479;28;20114;-69
2021/07/31 04:46:05;;;;;;;13.07;5.93;;;;;;;;;;5118580;28;20444;-69
2021/07/31 04:48:31;;;;;;;12.98;6.03;;;;;;;;;;5102009;28;20491;-69
2021/07/31 04:51:02;;;;;;;10.05;5.97;;;;;;;;;;5106954;28;20070;-69
2021/07/31 04:53:28;;;;;;;16.48;6.22;;;;;;;;;;5100044;28;20039;-69
2021/07/31 04:55:55;;;;;;;10.48;5.78;;;;;;;;;;5113943;28;20039;-69
2021/07/31 04:58:21;;;;;;;15.25;5.70;;;;;;;;;;5103315;28;20041;-69
2021/07/31 05:00:47;;;;;;;13.93;5.68;;;;;;;;;;5112372;28;20031;-69
2021/07/31 05:03:17;;;;;;;15.43;6.00;;;;;;;;;;5105626;28;20152;-70
2021/07/31 05:05:44;;;;;;;14.98;5.97;;;;;;;;;;5106515;28;20384;-70
2021/07/31 05:08:10;;;;;;;16.33;5.72;;;;;;;;;;5103340;28;20039;-70
2021/07/31 05:10:46;;;;;;;12.85;5.20;;;;;;;;;;5107192;28;20107;-70
2021/07/31 05:13:12;;;;;;;13.55;4.70;;;;;;;;;;5097515;27;20040;-70
2021/07/31 05:15:39;;;;;;;13.73;5.00;;;;;;;;;;5117646;27;20367;-70
2021/07/31 05:18:06;;;;;;;12.70;4.60;;;;;;;;;;5085570;28;20119;-70
2021/07/31 05:20:32;;;;;;;17.70;4.70;;;;;;;;;;5122867;27;20039;-69
2021/07/31 05:22:58;;;;;;;12.88;4.30;;;;;;;;;;5113175;27;20039;-69
2021/07/31 05:25:25;;;;;;;15.95;4.32;;;;;;;;;;5101300;27;20111;-69
2021/07/31 05:27:51;;;;;;;10.63;4.60;;;;;;;;;;5112153;27;20063;-69
2021/07/31 05:30:17;;;;;;;10.90;4.28;;;;;;;;;;5115874;27;20087;-69
2021/07/31 05:32:44;;;;;;;18.48;5.30;;;;;;;;;;5108156;27;20039;-69
2021/07/31 05:35:10;;;;;;;13.52;4.38;;;;;;;;;;5110145;27;20034;-69
2021/07/31 05:37:37;;;;;;;16.48;5.25;;;;;;;;;;5106068;27;20461;-69
2021/07/31 05:40:03;;;;;;;14.48;5.05;;;;;;;;;;5104986;27;20032;-69
2021/07/31 05:42:29;;;;;;;14.77;4.40;;;;;;;;;;5085546;28;20135;-69
2021/07/31 05:45:02;;;;;;;14.45;4.68;;;;;;;;;;5106029;27;20036;-69
2021/07/31 05:47:29;;;;;;;17.40;4.93;;;;;;;;;;5108409;27;20088;-69
2021/07/31 05:49:56;;;;;;;20.33;4.90;;;;;;;;;;5102876;27;20131;-69
2021/07/31 05:52:26;;;;;;;15.57;5.28;;;;;;;;;;5099822;27;20472;-68
2021/07/31 05:54:53;;;;;;;22.58;5.75;;;;;;;;;;5101934;27;20340;-68
2021/07/31 05:57:19;;;;;;;16.35;5.13;;;;;;;;;;5113363;27;20103;-68
2021/07/31 05:59:46;;;;;;;20.30;5.63;;;;;;;;;;5102372;27;20495;-68
2021/07/31 06:02:12;;;;;;;15.82;5.28;;;;;;;;;;5119016;27;20448;-67
2021/07/31 06:04:38;;;;;;;20.10;6.22;;;;;;;;;;5108972;27;20036;-67
2021/07/31 06:07:06;;;;;;;20.80;6.05;;;;;;;;;;5097395;27;20104;-67
2021/07/31 06:09:36;;;;;;;17.55;5.53;;;;;;;;;;5105492;27;20043;-67
2021/07/31 06:12:03;;;;;;;20.00;5.72;;;;;;;;;;5103776;27;20426;-67
2021/07/31 06:14:29;;;;;;;17.15;5.68;;;;;;;;;;5111897;27;20064;-67
2021/07/31 06:16:55;;;;;;;16.58;5.75;;;;;;;;;;5102525;27;20048;-67
2021/07/31 06:19:21;;;;;;;15.75;5.38;;;;;;;;;;5106768;27;20137;-67
2021/07/31 06:21:48;;;;;;;14.57;5.40;;;;;;;;;;5073718;28;20068;-67
2021/07/31 06:24:14;;;;;;;13.43;4.97;;;;;;;;;;5104636;27;20080;-68
2021/07/31 06:26:40;;;;;;;12.55;4.97;;;;;;;;;;5104410;27;20489;-68
2021/07/31 06:29:06;;;;;;;13.25;5.00;;;;;;;;;;5112862;27;20487;-68
2021/07/31 06:31:32;;;;;;;12.65;4.75;;;;;;;;;;5100764;27;20127;-68
2021/07/31 06:33:59;;;;;;;15.00;5.05;;;;;;;;;;5106699;27;20048;-67
2021/07/31 06:36:25;;;;;;;15.50;5.53;;;;;;;;;;5096754;27;20078;-68
2021/07/31 06:38:52;;;;;;;18.38;4.68;;;;;;;;;;5111312;27;20039;-68
2021/07/31 06:41:18;;;;;;;17.60;5.43;;;;;;;;;;5101583;27;20044;-68
2021/07/31 06:43:44;;;;;;;15.05;4.60;;;;;;;;;;5112675;27;20114;-68
2021/07/31 06:46:11;;;;;;;18.05;4.68;;;;;;;;;;5110811;27;20035;-68
2021/07/31 06:48:37;;;;;;;19.10;5.10;;;;;;;;;;5097124;28;20088;-68
2021/07/31 06:51:04;;;;;;;12.10;4.20;;;;;;;;;;5104412;27;20050;-68
2021/07/31 06:53:30;;;;;;;12.93;4.82;;;;;;;;;;5103624;27;20472;-69
2021/07/31 06:55:59;;;;;;;20.10;5.95;;;;;;;;;;5109708;27;20055;-68
2021/07/31 06:58:26;;;;;;;16.92;5.05;;;;;;;;;;5101543;27;20050;-69
2021/07/31 07:00:52;;;;;;;10.68;4.25;;;;;;;;;;5105312;27;20064;-69
2021/07/31 07:03:18;;;;;;;15.10;4.88;;;;;;;;;;5105937;27;20080;-69
2021/07/31 07:05:44;;;;;;;10.70;4.18;;;;;;;;;;5100284;27;20040;-69
2021/07/31 07:08:11;;;;;;;13.30;4.32;;;;;;;;;;5092510;27;20031;-69
2021/07/31 07:10:37;;;;;;;12.88;4.53;;;;;;;;;;5104733;27;20246;-69
2021/07/31 07:13:03;;;;;;;11.68;4.05;;;;;;;;;;5080072;27;20531;-69
2021/07/31 07:15:29;;;;;;;13.80;4.13;;;;;;;;;;5117345;27;20039;-69
2021/07/31 07:17:56;;;;;;;15.07;4.45;;;;;;;;;;5111247;27;20139;-69
2021/07/31 07:20:23;;;;;;;13.48;3.92;;;;;;;;;;5117671;27;20032;-69
2021/07/31 07:22:49;;;;;;;16.58;4.07;;;;;;;;;;5105880;27;20047;-69
2021/07/31 07:25:15;;;;;;;12.85;3.65;;;;;;;;;;5110320;27;20073;-69
2021/07/31 07:27:41;;;;;;;12.70;4.18;;;;;;;;;;5112869;27;20035;-69
2021/07/31 07:30:07;;;;;;;13.18;4.20;;;;;;;;;;5099585;27;20043;-69
2021/07/31 07:32:37;;;;;;;14.13;4.47;;;;;;;;;;5105775;27;20152;-68
2021/07/31 07:35:04;;;;;;;17.98;4.53;;;;;;;;;;5098344;27;20035;-68
2021/07/31 07:37:30;;;;;;;13.82;3.85;;;;;;;;;;5104375;27;20067;-69
2021/07/31 07:39:57;;;;;;;12.50;3.83;;;;;;;;;;5101191;27;20130;-69
2021/07/31 07:42:23;;;;;;;17.38;4.07;;;;;;;;;;5109620;27;20494;-69
2021/07/31 07:44:49;;;;;;;9.77;4.00;;;;;;;;;;5105771;28;20103;-69
2021/07/31 07:47:16;;;;;;;12.95;3.92;;;;;;;;;;5113374;28;20058;-69
2021/07/31 07:49:42;;;;;;;16.90;4.13;;;;;;;;;;5103431;27;20391;-69
2021/07/31 07:52:08;;;;;;;16.35;3.58;;;;;;;;;;5115298;27;20046;-69
2021/07/31 07:54:34;;;;;;;14.23;4.10;;;;;;;;;;5095068;27;20471;-69
2021/07/31 07:57:05;;;;;;;12.80;3.80;;;;;;;;;;5103474;28;20036;-69
2021/07/31 07:59:31;;;;;;;14.65;3.63;;;;;;;;;;5085257;28;20060;-69
2021/07/31 08:01:57;;;;;;;13.77;3.47;;;;;;;;;;5113716;28;20050;-69
2021/07/31 08:04:23;;;;;;;10.27;2.90;;;;;;;;;;5105595;28;20407;-69
2021/07/31 08:06:49;;;;;;;11.95;3.67;;;;;;;;;;5110645;28;20471;-69
2021/07/31 08:09:16;;;;;;;14.38;3.08;;;;;;;;;;5116727;28;20093;-70
2021/07/31 08:11:43;;;;;;;12.57;3.28;;;;;;;;;;5113348;28;20042;-70
2021/07/31 08:14:09;;;;;;;9.80;3.08;;;;;;;;;;5094599;28;20372;-69
2021/07/31 08:16:36;;;;;;;14.25;3.15;;;;;;;;;;5104830;28;20095;-70
2021/07/31 08:19:03;;;;;;;13.93;3.00;;;;;;;;;;5115592;28;20032;-70
2021/07/31 08:21:30;;;;;;;13.35;2.88;;;;;;;;;;5107053;28;20035;-70
2021/07/31 08:23:56;;;;;;;12.63;2.97;;;;;;;;;;5106322;28;20031;-70
2021/07/31 08:26:22;;;;;;;13.27;3.53;;;;;;;;;;5103846;28;20038;-70
2021/07/31 08:28:50;;;;;;;9.38;3.15;;;;;;;;;;5115119;28;20181;-70
2021/07/31 08:31:17;;;;;;;7.47;1.95;;;;;;;;;;5103484;28;20039;-70
2021/07/31 08:33:45;;;;;;;8.90;2.75;;;;;;;;;;5106192;28;20565;-70
2021/07/31 08:36:11;;;;;;;13.52;3.30;;;;;;;;;;5107375;28;20372;-70
2021/07/31 08:38:38;;;;;;;14.48;4.13;;;;;;;;;;5099543;28;20402;-70
2021/07/31 08:41:04;;;;;;;10.57;2.63;;;;;;;;;;5100149;28;20055;-70
2021/07/31 08:43:31;;;;;;;10.98;2.75;;;;;;;;;;5091217;28;20109;-70
2021/07/31 08:45:58;;;;;;;13.80;4.10;;;;;;;;;;5110234;27;20063;-69
2021/07/31 08:48:30;;;;;;;12.18;3.05;;;;;;;;;;5114734;27;20046;-69
2021/07/31 08:50:57;;;;;;;11.73;3.10;;;;;;;;;;5108467;27;20492;-69
2021/07/31 08:53:25;;;;;;;10.25;2.53;;;;;;;;;;5107592;27;20072;-69
2021/07/31 08:55:51;;;;;;;6.95;2.63;;;;;;;;;;5111313;27;20031;-69
2021/07/31 08:58:17;;;;;;;12.98;3.40;;;;;;;;;;5099513;27;20047;-70
2021/07/31 09:00:44;;;;;;;10.95;3.20;;;;;;;;;;5114721;27;20036;-69
2021/07/31 09:03:15;;;;;;;9.60;2.78;;;;;;;;;;5115342;27;20397;-68
2021/07/31 09:05:42;;;;;;;11.25;3.13;;;;;;;;;;5119066;27;20071;-68
2021/07/31 09:08:09;;;;;;;10.82;3.25;;;;;;;;;;5102964;27;20131;-68
2021/07/31 09:10:36;;;;;;;10.57;2.80;;;;;;;;;;5113837;27;20420;-68
2021/07/31 09:13:05;;;;;;;10.63;2.80;;;;;;;;;;5108550;27;20984;-68
2021/07/31 09:15:33;;;;;;;13.73;3.90;;;;;;;;;;5117544;27;20042;-67
2021/07/31 09:18:32;;;;;;;15.65;3.95;;;;;;;;;;5103094;27;20048;-66
2021/07/31 09:21:10;;;;;;;10.10;3.30;;;;;;;;;;5090602;27;20495;-68
2021/07/31 09:23:43;;;;;;;15.20;3.72;;;;;;;;;;5106745;27;20058;-68
2021/07/31 09:26:10;;;;;;;13.00;3.78;;;;;;;;;;5119053;27;20043;-67
2021/07/31 09:28:40;;;;;;;12.77;3.83;;;;;;;;;;5106639;27;20039;-67
2021/07/31 09:31:07;;;;;;;18.63;4.70;;;;;;;;;;5112940;27;20179;-68
2021/07/31 09:33:33;;;;;;;17.05;3.90;;;;;;;;;;5104427;27;20032;-68
2021/07/31 09:36:04;;;;;;;15.77;3.85;;;;;;;;;;5119911;27;20051;-68
2021/07/31 09:38:41;;;;;;;10.25;3.22;;;;;;;;;;5104250;27;20047;-69
2021/07/31 09:41:16;;;;;;;11.35;4.18;;;;;;;;;;5109583;27;20032;-69
2021/07/31 09:43:59;;;;;;;11.85;3.40;;;;;;;;;;5102891;27;20039;-69
2021/07/31 09:46:43;;;;;;;30.55;8.80;;;;;;;;;;5108629;27;20032;-69
2021/07/31 09:49:09;;;;;;;;;;;;;;;;;;5109189;27;20042;-70
2021/07/31 09:51:37;;;;;;;8.35;3.53;;;;;;;;;;5109965;27;20384;-70
2021/07/31 09:54:06;;;;;;;13.20;2.92;;;;;;;;;;5080662;27;20462;-70
2021/07/31 09:56:37;;;;;;;11.48;2.80;;;;;;;;;;5116259;27;20539;-70
2021/07/31 09:59:04;;;;;;;11.48;3.50;;;;;;;;;;5104971;27;20035;-70
2021/07/31 10:01:30;;;;;;;8.57;2.45;;;;;;;;;;5106908;27;20042;-71
2021/07/31 10:03:57;;;;;;;10.13;2.53;;;;;;;;;;5102956;27;20044;-70
2021/07/31 10:06:23;;;;;;;10.05;3.05;;;;;;;;;;5106792;27;20028;-71
2021/07/31 10:08:50;;;;;;;11.25;2.92;;;;;;;;;;5111361;27;20043;-71
2021/07/31 10:11:16;;;;;;;15.32;3.92;;;;;;;;;;5085684;27;20360;-71
2021/07/31 10:13:42;;;;;;;40.28;5.57;;;;;;;;;;5083076;28;20048;-71
2021/07/31 10:16:09;;;;;;;17.50;4.80;;;;;;;;;;5111721;27;20042;-71
2021/07/31 10:18:35;;;;;;;12.98;3.28;;;;;;;;;;5111234;27;20039;-71
2021/07/31 10:21:05;;;;;;;13.82;3.05;;;;;;;;;;5105730;27;20035;-69
2021/07/31 10:23:54;;;;;;;10.52;2.22;;;;;;;;;;5119834;27;20921;-69
2021/07/31 10:26:21;;;;;;;9.82;2.30;;;;;;;;;;5109976;27;20042;-69
2021/07/31 10:28:47;;;;;;;12.57;3.10;;;;;;;;;;5110110;27;20047;-68
2021/07/31 10:31:29;;;;;;;7.85;2.15;;;;;;;;;;5107391;27;20031;-69
2021/07/31 10:33:55;;;;;;;6.57;1.80;;;;;;;;;;5114192;27;20081;-69
2021/07/31 10:36:28;;;;;;;7.88;2.17;;;;;;;;;;5111282;27;20039;-69
2021/07/31 10:38:55;;;;;;;8.75;2.00;;;;;;;;;;5112071;27;20059;-69
2021/07/31 10:41:39;;;;;;;7.50;2.15;;;;;;;;;;5108023;27;20070;-69
2021/07/31 10:44:09;;;;;;;6.35;1.73;;;;;;;;;;5113066;27;20043;-69
2021/07/31 10:46:35;;;;;;;7.93;2.05;;;;;;;;;;5110839;27;20035;-69
2021/07/31 10:49:20;;;;;;;8.10;1.63;;;;;;;;;;5112380;27;20114;-69
2021/07/31 10:51:47;;;;;;;7.60;1.90;;;;;;;;;;5098846;27;20498;-69
2021/07/31 10:54:13;;;;;;;6.05;1.70;;;;;;;;;;5116850;27;20028;-69
2021/07/31 10:56:52;;;;;;;8.00;1.88;;;;;;;;;;5108082;27;20486;-69
2021/07/31 10:59:19;;;;;;;7.85;1.88;;;;;;;;;;5112429;27;20035;-69
2021/07/31 11:01:46;;;;;;;8.32;2.40;;;;;;;;;;5105309;27;20102;-69
2021/07/31 11:04:31;;;;;;;5.03;1.58;;;;;;;;;;5118824;27;20035;-69
2021/07/31 11:07:10;;;;;;;6.63;1.95;;;;;;;;;;5107731;27;20390;-70
2021/07/31 11:09:36;;;;;;;7.75;2.00;;;;;;;;;;5111867;27;20060;-70
2021/07/31 11:12:21;;;;;;;6.85;2.03;;;;;;;;;;5100894;27;20035;-71
2021/07/31 11:15:06;;;;;;;6.80;1.70;;;;;;;;;;5108228;27;20032;-70
2021/07/31 11:17:32;;;;;;;8.38;2.20;;;;;;;;;;5104074;27;20475;-71
2021/07/31 11:19:58;;;;;;;6.80;2.00;;;;;;;;;;5113546;27;20032;-70
2021/07/31 11:22:28;;;;;;;7.22;2.15;;;;;;;;;;5104641;27;20036;-70
2021/07/31 11:24:56;;;;;;;6.78;2.20;;;;;;;;;;5105982;27;20139;-71
2021/07/31 11:27:22;;;;;;;6.03;2.20;;;;;;;;;;5105154;27;20077;-71
2021/07/31 11:29:52;;;;;;;8.88;2.55;;;;;;;;;;5109864;27;20035;-71
2021/07/31 11:32:27;;;;;;;7.38;2.17;;;;;;;;;;5086795;28;20105;-71
2021/07/31 11:34:53;;;;;;;10.18;2.40;;;;;;;;;;5109653;27;20032;-71
2021/07/31 11:37:20;;;;;;;9.18;2.10;;;;;;;;;;5111578;27;20040;-71
2021/07/31 11:39:47;;;;;;;6.43;2.30;;;;;;;;;;5102074;27;20141;-71
2021/07/31 11:42:21;;;;;;;5.13;1.85;;;;;;;;;;5105262;28;20040;-71
2021/07/31 11:44:47;;;;;;;14.57;4.13;;;;;;;;;;5097947;27;20035;-68
2021/07/31 11:47:13;;;;;;;11.15;3.45;;;;;;;;;;5108404;28;20039;-67
2021/07/31 11:49:40;;;;;;;6.57;2.70;;;;;;;;;;5097095;27;20032;-68
2021/07/31 11:52:07;;;;;;;9.55;3.17;;;;;;;;;;5104694;27;20114;-67
2021/07/31 11:54:36;;;;;;;8.80;2.90;;;;;;;;;;5100994;28;20084;-67
2021/07/31 11:57:03;;;;;;;5.90;2.78;;;;;;;;;;5107424;28;20042;-68
2021/07/31 11:59:30;;;;;;;10.05;4.07;;;;;;;;;;5109880;28;20319;-67
2021/07/31 12:01:57;;;;;;;6.15;3.20;;;;;;;;;;5114752;28;20123;-67
2021/07/31 12:04:45;;;;;;;9.65;3.53;;;;;;;;;;5103052;28;20394;-68
2021/07/31 12:07:16;;;;;;;9.45;3.38;;;;;;;;;;5106787;28;20039;-68
2021/07/31 12:09:44;;;;;;;7.45;3.20;;;;;;;;;;5100752;28;20051;-68
2021/07/31 12:12:42;;;;;;;7.22;3.70;;;;;;;;;;5113361;28;20040;-68
2021/07/31 12:15:09;;;;;;;7.70;3.60;;;;;;;;;;5063011;28;20036;-69
2021/07/31 12:17:37;;;;;;;7.70;2.67;;;;;;;;;;5119944;28;20039;-69
2021/07/31 12:20:03;;;;;;;5.45;2.22;;;;;;;;;;5105322;28;20039;-69
2021/07/31 12:22:31;;;;;;;3.20;1.88;;;;;;;;;;5118883;27;20126;-69
2021/07/31 12:25:08;;;;;;;5.15;2.13;;;;;;;;;;5115159;27;20131;-70
2021/07/31 12:27:50;;;;;;;4.63;2.00;;;;;;;;;;5116227;27;20046;-70
2021/07/31 12:30:38;;;;;;;5.47;2.30;;;;;;;;;;5112378;27;20122;-71
2021/07/31 12:33:08;;;;;;;4.15;2.28;;;;;;;;;;5089241;27;20452;-71
2021/07/31 12:35:36;;;;;;;5.43;1.75;;;;;;;;;;5093974;28;20058;-71
2021/07/31 12:38:03;;;;;;;4.95;1.92;;;;;;;;;;5121109;27;20036;-71
2021/07/31 12:40:30;;;;;;;5.18;2.13;;;;;;;;;;5109660;27;20411;-71
2021/07/31 12:42:56;;;;;;;5.60;1.98;;;;;;;;;;5112777;27;20046;-71
2021/07/31 12:45:22;;;;;;;5.55;2.05;;;;;;;;;;5115583;27;20033;-72
2021/07/31 12:47:48;;;;;;;5.35;2.00;;;;;;;;;;5117923;27;20098;-72
2021/07/31 12:50:14;;;;;;;4.05;1.83;;;;;;;;;;5114080;27;20123;-71
2021/07/31 12:52:41;;;;;;;4.03;2.00;;;;;;;;;;5109661;27;20153;-72
2021/07/31 12:55:08;;;;;;;7.10;2.25;;;;;;;;;;5123529;27;20443;-71
2021/07/31 12:57:34;;;;;;;4.45;1.55;;;;;;;;;;5111037;27;20118;-71
2021/07/31 13:00:00;;;;;;;4.30;1.58;;;;;;;;;;5113156;27;20051;-71
2021/07/31 13:02:28;;;;;;;5.07;1.40;;;;;;;;;;5112087;27;20084;-71
2021/07/31 13:04:55;;;;;;;2.88;1.20;;;;;;;;;;5118159;27;20460;-71
2021/07/31 13:07:21;;;;;;;1.98;0.90;;;;;;;;;;5105050;27;20088;-71
2021/07/31 13:09:47;;;;;;;5.22;1.42;;;;;;;;;;5114841;27;20298;-71
2021/07/31 13:12:13;;;;;;;3.22;1.20;;;;;;;;;;5105860;27;20031;-71
2021/07/31 13:14:39;;;;;;;3.20;1.10;;;;;;;;;;5112885;27;20040;-71
2021/07/31 13:17:06;;;;;;;3.28;1.52;;;;;;;;;;5104172;27;20138;-71
2021/07/31 13:19:32;;;;;;;3.42;1.17;;;;;;;;;;5107145;27;20051;-71
2021/07/31 13:21:59;;;;;;;4.28;1.10;;;;;;;;;;5110024;27;20035;-71
2021/07/31 13:24:25;;;;;;;3.72;1.10;;;;;;;;;;5111693;27;20028;-72
2021/07/31 13:26:51;;;;;;;2.88;1.10;;;;;;;;;;5115139;27;20107;-71
2021/07/31 13:29:17;;;;;;;4.55;1.23;;;;;;;;;;5112200;27;20406;-70
2021/07/31 13:31:46;;;;;;;2.38;1.10;;;;;;;;;;5114320;27;20036;-70
2021/07/31 13:34:16;;;;;;;2.70;1.08;;;;;;;;;;5100876;27;20047;-70
2021/07/31 13:36:46;;;;;;;3.22;1.08;;;;;;;;;;5111692;27;20437;-70
2021/07/31 13:39:14;;;;;;;3.25;1.27;;;;;;;;;;5102103;28;20399;-70
2021/07/31 13:41:41;;;;;;;2.50;1.02;;;;;;;;;;5123577;27;20036;-72
2021/07/31 13:44:14;;;;;;;1.95;0.80;;;;;;;;;;5104486;27;20394;-71
2021/07/31 13:46:40;;;;;;;3.03;0.88;;;;;;;;;;5111272;27;20078;-71
2021/07/31 13:49:06;;;;;;;3.53;1.20;;;;;;;;;;5105795;27;20040;-71
2021/07/31 13:51:32;;;;;;;4.13;1.27;;;;;;;;;;5109211;27;20059;-70
2021/07/31 13:53:58;;;;;;;5.00;1.23;;;;;;;;;;5113562;27;20054;-71
2021/07/31 13:56:25;;;;;;;4.05;1.35;;;;;;;;;;5118244;27;20399;-71
2021/07/31 13:58:51;;;;;;;3.00;1.38;;;;;;;;;;5108896;27;20468;-71
2021/07/31 14:01:21;;;;;;;4.60;1.80;;;;;;;;;;5118359;27;20039;-71
2021/07/31 14:03:47;;;;;;;4.80;1.80;;;;;;;;;;5111034;27;20099;-71
2021/07/31 14:06:13;;;;;;;5.10;1.90;;;;;;;;;;5115344;27;20089;-71
2021/07/31 14:08:39;;;;;;;5.95;1.67;;;;;;;;;;5088338;27;20039;-71
2021/07/31 14:11:05;;;;;;;5.03;2.05;;;;;;;;;;5112586;27;20032;-71
2021/07/31 14:13:31;;;;;;;5.15;1.90;;;;;;;;;;5115764;27;20092;-71
2021/07/31 14:15:58;;;;;;;4.45;2.17;;;;;;;;;;5108432;27;20074;-71
2021/07/31 14:18:24;;;;;;;5.47;2.13;;;;;;;;;;5109065;27;20044;-71
2021/07/31 14:20:50;;;;;;;4.55;1.83;;;;;;;;;;5115060;27;20035;-71
2021/07/31 14:23:17;;;;;;;4.32;2.20;;;;;;;;;;5091640;27;20035;-71
2021/07/31 14:25:44;;;;;;;3.08;1.50;;;;;;;;;;5101394;27;20028;-71
2021/07/31 14:28:10;;;;;;;4.93;1.70;;;;;;;;;;5117281;27;20431;-71
2021/07/31 14:30:37;;;;;;;5.60;1.80;;;;;;;;;;5086796;27;20430;-72
2021/07/31 14:33:04;;;;;;;3.33;1.70;;;;;;;;;;5116535;27;20074;-72
2021/07/31 14:35:30;;;;;;;3.47;1.70;;;;;;;;;;5107821;27;20067;-72
2021/07/31 14:37:57;;;;;;;2.33;1.20;;;;;;;;;;5108778;27;20089;-72
2021/07/31 14:40:24;;;;;;;4.72;1.33;;;;;;;;;;5109080;27;20406;-72